Time;durP1;ratioP1;P1;durP2;ratioP2;P2;SDS_P1;SDS_P2;PMS_P1;PMS_P2;Temp;Humidity;BMP_temperature;BMP_pressure;BME280_temperature;BME280_humidity;BME280_pressure;Samples;Min_cycle;Max_cycle;Signal;HPM_P1;HPM_P2
2021/12/02 00:01:24;;;;;;;11.67;2.70;;;3.30;81.40;;;;;;5074642;28;20220;-86
2021/12/02 00:03:50;;;;;;;3.90;1.67;;;3.30;80.50;;;;;;5074494;28;20292;-85
2021/12/02 00:06:19;;;;;;;13.40;2.63;;;3.30;80.80;;;;;;5074701;28;20167;-86
2021/12/02 00:08:47;;;;;;;11.07;2.20;;;3.30;81.10;;;;;;5072789;28;20172;-86
2021/12/02 00:11:14;;;;;;;16.90;2.57;;;3.30;81.30;;;;;;5074099;28;20171;-86
2021/12/02 00:21:25;;;;;;;8.57;1.83;;;3.20;82.30;;;;;;5073885;28;20573;-86
2021/12/02 00:24:09;;;;;;;10.40;2.20;;;3.20;81.60;;;;;;5072236;28;20208;-86
2021/12/02 00:26:38;;;;;;;6.73;2.10;;;3.30;81.90;;;;;;5073630;28;20174;-86
2021/12/02 00:29:06;;;;;;;11.17;2.60;;;3.20;81.80;;;;;;5073488;28;20168;-86
2021/12/02 00:31:36;;;;;;;8.53;1.97;;;3.30;81.20;;;;;;5073795;28;20171;-85
2021/12/02 00:34:04;;;;;;;7.47;2.27;;;3.30;80.70;;;;;;5072176;28;20176;-86
2021/12/02 00:36:32;;;;;;;8.00;1.87;;;3.20;79.80;;;;;;5073935;28;20178;-86
2021/12/02 00:38:59;;;;;;;10.37;2.47;;;3.20;81.10;;;;;;5073038;28;20207;-85
2021/12/02 00:41:28;;;;;;;8.43;1.93;;;3.10;81.00;;;;;;5072962;28;20257;-85
2021/12/02 00:43:56;;;;;;;10.93;2.53;;;3.20;81.10;;;;;;5072916;28;20209;-86
2021/12/02 00:46:24;;;;;;;11.13;1.90;;;3.10;80.90;;;;;;5073037;28;20171;-86
2021/12/02 00:48:50;;;;;;;6.37;1.43;;;3.10;80.70;;;;;;5073275;28;20581;-85
2021/12/02 00:51:17;;;;;;;8.73;2.20;;;3.10;80.20;;;;;;5077126;28;20224;-86
2021/12/02 00:53:51;;;;;;;11.00;2.67;;;3.10;80.30;;;;;;5077181;28;20258;-85
2021/12/02 00:56:20;;;;;;;6.23;1.90;;;3.10;80.60;;;;;;5077379;28;20155;-85
2021/12/02 00:58:47;;;;;;;10.70;2.73;;;3.10;80.60;;;;;;5075639;28;20649;-86
2021/12/02 01:01:14;;;;;;;5.97;1.83;;;3.00;80.90;;;;;;5077104;28;20520;-85
2021/12/02 01:03:42;;;;;;;4.60;1.93;;;3.10;80.30;;;;;;5076566;28;20194;-86
2021/12/02 01:06:08;;;;;;;8.07;2.10;;;3.00;80.80;;;;;;5075613;28;20167;-86
2021/12/02 01:08:35;;;;;;;9.90;2.03;;;3.00;80.80;;;;;;5075467;28;20646;-85
2021/12/02 01:11:01;;;;;;;7.23;1.90;;;3.00;81.30;;;;;;5075367;28;20178;-85
2021/12/02 01:13:26;;;;;;;7.23;1.90;;;3.00;81.10;;;;;;5076445;28;20287;-85
2021/12/02 01:15:52;;;;;;;9.60;1.77;;;3.10;81.10;;;;;;5076532;28;20210;-86
2021/12/02 01:18:18;;;;;;;10.77;2.00;;;3.00;81.30;;;;;;5075132;28;20594;-85
2021/12/02 01:20:48;;;;;;;7.53;2.13;;;3.00;80.80;;;;;;5076420;28;20250;-86
2021/12/02 01:23:16;;;;;;;3.03;1.50;;;3.00;81.20;;;;;;5076170;28;20690;-85
2021/12/02 01:25:44;;;;;;;4.17;1.43;;;3.00;80.50;;;;;;5075053;28;20229;-85
2021/12/02 01:28:10;;;;;;;8.07;1.80;;;3.00;79.80;;;;;;5076311;28;20170;-85
2021/12/02 01:30:36;;;;;;;9.50;1.97;;;3.00;80.50;;;;;;5076221;28;20254;-85
2021/12/02 01:33:07;;;;;;;7.27;1.87;;;3.00;80.70;;;;;;5076146;28;20229;-85
2021/12/02 01:35:34;;;;;;;4.77;1.70;;;2.90;81.30;;;;;;5076126;28;20262;-85
2021/12/02 01:38:00;;;;;;;1.97;1.50;;;2.90;81.20;;;;;;5076045;28;20636;-85
2021/12/02 01:40:26;;;;;;;3.60;1.70;;;2.90;80.30;;;;;;5076002;28;20175;-86
2021/12/02 01:42:57;;;;;;;5.40;1.73;;;2.80;80.30;;;;;;5074596;28;20222;-85
2021/12/02 01:45:27;;;;;;;5.63;1.70;;;2.80;80.90;;;;;;5076227;28;20192;-85
2021/12/02 01:47:54;;;;;;;6.90;1.70;;;2.80;81.10;;;;;;5074705;28;20265;-85
2021/12/02 01:50:23;;;;;;;8.87;2.00;;;2.70;81.50;;;;;;5076195;28;20168;-85
2021/12/02 01:53:01;;;;;;;7.57;1.70;;;2.70;81.40;;;;;;5075774;28;20186;-85
2021/12/02 01:55:28;;;;;;;3.77;1.60;;;2.70;81.60;;;;;;5075850;28;20178;-85
2021/12/02 01:58:03;;;;;;;6.67;1.77;;;2.60;81.40;;;;;;5074477;28;20643;-85
2021/12/02 02:00:45;;;;;;;7.83;1.70;;;2.60;81.70;;;;;;5075664;28;20174;-85
2021/12/02 02:03:13;;;;;;;6.73;1.40;;;2.60;81.60;;;;;;5074314;28;20195;-85
2021/12/02 02:05:39;;;;;;;5.03;1.40;;;2.60;82.00;;;;;;5075534;28;20175;-85
2021/12/02 02:08:11;;;;;;;4.73;1.67;;;2.70;80.80;;;;;;5074210;28;20186;-85
2021/12/02 02:10:39;;;;;;;4.80;1.40;;;2.70;80.60;;;;;;5075718;28;20238;-86
2021/12/02 02:13:09;;;;;;;4.00;1.30;;;2.70;79.80;;;;;;5073982;28;20209;-85
2021/12/02 02:15:41;;;;;;;4.40;1.37;;;2.60;80.10;;;;;;5075723;28;20152;-85
2021/12/02 02:18:12;;;;;;;3.70;1.47;;;2.50;80.50;;;;;;5074109;28;20575;-85
2021/12/02 02:20:41;;;;;;;2.60;1.50;;;2.50;80.80;;;;;;5074110;28;20263;-85
2021/12/02 02:23:10;;;;;;;5.70;1.30;;;2.50;81.00;;;;;;5073864;28;20281;-85
2021/12/02 02:25:37;;;;;;;6.83;1.73;;;2.50;81.40;;;;;;5073943;28;20228;-85
2021/12/02 02:28:03;;;;;;;4.40;1.67;;;2.50;81.20;;;;;;5073823;28;20271;-85
2021/12/02 02:30:28;;;;;;;5.17;1.33;;;2.50;81.50;;;;;;5075225;28;20210;-85
2021/12/02 02:32:54;;;;;;;5.67;1.37;;;2.50;81.80;;;;;;5073830;28;20220;-85
2021/12/02 02:35:20;;;;;;;4.73;1.53;;;2.50;82.20;;;;;;5075298;28;20202;-85
2021/12/02 02:37:46;;;;;;;3.07;1.40;;;2.50;83.30;;;;;;5075258;28;20695;-86
2021/12/02 02:40:13;;;;;;;4.73;1.70;;;2.40;83.80;;;;;;5075145;28;20212;-85
2021/12/02 02:42:39;;;;;;;5.80;1.57;;;2.40;84.30;;;;;;5073649;28;20202;-85
2021/12/02 02:45:05;;;;;;;5.30;1.80;;;2.30;85.00;;;;;;5073610;28;20264;-85
2021/12/02 02:47:31;;;;;;;2.40;1.60;;;2.20;85.70;;;;;;5075057;28;20185;-85
2021/12/02 02:49:57;;;;;;;5.80;1.57;;;2.20;86.40;;;;;;5074799;28;20170;-85
2021/12/02 02:52:22;;;;;;;1.30;1.00;;;2.30;87.10;;;;;;5073374;28;20254;-86
2021/12/02 02:54:49;;;;;;;2.80;1.30;;;2.20;87.10;;;;;;5073378;28;20176;-85
2021/12/02 02:57:17;;;;;;;9.10;1.80;;;2.20;87.10;;;;;;5074533;28;20518;-85
2021/12/02 03:02:36;;;;;;;2.03;1.20;;;2.10;87.80;;;;;;5074481;28;20205;-84
2021/12/02 03:05:26;;;;;;;7.63;2.03;;;2.00;87.80;;;;;;5073358;28;20250;-85
2021/12/02 03:07:58;;;;;;;2.10;1.10;;;2.00;88.10;;;;;;5074159;28;20182;-85
2021/12/02 03:13:24;;;;;;;1.07;0.93;;;1.90;89.10;;;;;;5074103;28;20808;-85
2021/12/02 03:18:37;;;;;;;5.53;1.90;;;1.80;89.30;;;;;;5074369;28;20172;-85
2021/12/02 03:21:17;;;;;;;2.87;1.33;;;1.80;89.50;;;;;;5073768;28;20180;-85
2021/12/02 03:23:55;;;;;;;7.20;1.50;;;1.80;89.60;;;;;;5074046;28;20570;-85
2021/12/02 03:26:21;;;;;;;3.13;1.20;;;1.80;89.60;;;;;;5072738;28;20258;-85
2021/12/02 03:28:48;;;;;;;5.80;1.50;;;1.70;89.60;;;;;;5073942;28;20174;-85
2021/12/02 03:31:14;;;;;;;5.17;1.20;;;1.60;89.80;;;;;;5072729;28;20230;-85
2021/12/02 03:33:41;;;;;;;2.20;1.27;;;1.60;89.90;;;;;;5073843;28;20191;-85
2021/12/02 03:36:11;;;;;;;1.13;0.80;;;1.60;89.80;;;;;;5073810;28;20226;-85
2021/12/02 03:38:37;;;;;;;8.20;1.60;;;1.60;89.60;;;;;;5073809;28;20194;-85
2021/12/02 03:41:04;;;;;;;7.87;1.60;;;1.60;89.30;;;;;;5074797;28;20231;-86
2021/12/02 03:43:38;;;;;;;2.27;1.50;;;1.60;89.30;;;;;;5074111;28;20257;-85
2021/12/02 03:46:04;;;;;;;4.37;1.50;;;1.50;89.20;;;;;;5075638;28;20264;-86
2021/12/02 03:48:30;;;;;;;5.17;1.80;;;1.60;89.00;;;;;;5074677;28;20178;-86
2021/12/02 03:50:56;;;;;;;5.50;1.70;;;1.60;88.90;;;;;;5076104;28;20178;-85
2021/12/02 03:53:22;;;;;;;6.80;2.47;;;1.60;88.80;;;;;;5074972;28;20205;-86
2021/12/02 03:55:47;;;;;;;6.00;1.80;;;1.70;88.40;;;;;;5074882;28;20708;-86
2021/12/02 03:58:13;;;;;;;12.70;2.03;;;1.80;88.00;;;;;;5075965;28;20188;-87
2021/12/02 04:00:39;;;;;;;7.47;1.80;;;1.80;87.30;;;;;;5075922;28;20187;-86
2021/12/02 04:03:05;;;;;;;6.03;1.83;;;1.80;87.00;;;;;;5076002;28;20232;-86
2021/12/02 04:05:31;;;;;;;10.83;2.03;;;1.80;86.70;;;;;;5074647;28;20272;-86
2021/12/02 04:07:57;;;;;;;8.53;1.73;;;1.80;86.90;;;;;;5076422;28;20180;-87
2021/12/02 04:10:23;;;;;;;6.60;1.93;;;1.80;86.80;;;;;;5075202;28;20178;-86
2021/12/02 04:13:04;;;;;;;9.67;1.67;;;1.80;86.90;;;;;;5076302;28;20533;-86
2021/12/02 04:15:33;;;;;;;9.93;1.70;;;1.80;86.30;;;;;;5075286;28;20192;-86
2021/12/02 04:17:59;;;;;;;7.03;1.70;;;1.80;86.20;;;;;;5075286;28;20253;-87
2021/12/02 04:20:26;;;;;;;9.73;1.77;;;1.80;86.40;;;;;;5076382;28;20170;-85
2021/12/02 04:22:53;;;;;;;6.10;1.90;;;1.80;86.00;;;;;;5075078;28;20629;-85
2021/12/02 04:25:20;;;;;;;5.77;1.90;;;1.80;85.30;;;;;;5075755;28;20195;-86
2021/12/02 04:27:48;;;;;;;7.50;1.90;;;1.80;85.30;;;;;;5075556;28;20638;-86
2021/12/02 04:30:18;;;;;;;4.87;1.87;;;1.80;85.00;;;;;;5075379;28;20584;-85
2021/12/02 04:32:43;;;;;;;5.47;1.93;;;1.70;85.40;;;;;;5074825;28;20190;-85
2021/12/02 04:35:11;;;;;;;3.77;1.73;;;1.70;85.50;;;;;;5075634;28;20495;-85
2021/12/02 04:37:37;;;;;;;4.50;1.57;;;1.70;85.60;;;;;;5074132;28;20591;-85
2021/12/02 04:40:03;;;;;;;8.77;2.80;;;1.70;85.50;;;;;;5074369;28;20185;-85
2021/12/02 04:42:29;;;;;;;5.60;1.47;;;1.70;85.10;;;;;;5074785;28;20197;-86
2021/12/02 04:44:55;;;;;;;9.73;2.17;;;1.70;84.80;;;;;;5075011;28;20693;-85
2021/12/02 04:47:21;;;;;;;12.63;2.10;;;1.70;84.20;;;;;;5075429;28;20168;-86
2021/12/02 04:49:47;;;;;;;9.40;2.50;;;1.80;84.20;;;;;;5074605;28;20175;-85
2021/12/02 04:52:12;;;;;;;9.17;1.73;;;1.80;84.40;;;;;;5073259;28;20288;-86
2021/12/02 04:54:38;;;;;;;11.03;1.57;;;1.70;84.60;;;;;;5074098;28;20221;-86
2021/12/02 04:57:04;;;;;;;4.83;1.67;;;1.60;84.90;;;;;;5076127;28;20173;-85
2021/12/02 04:59:30;;;;;;;4.87;1.50;;;1.60;84.70;;;;;;5073136;28;20722;-85
2021/12/02 05:01:55;;;;;;;13.73;2.40;;;1.60;84.80;;;;;;5073126;28;20201;-85
2021/12/02 05:04:21;;;;;;;7.50;1.90;;;1.60;85.20;;;;;;5074324;28;20202;-85
2021/12/02 05:06:47;;;;;;;11.67;1.93;;;1.60;85.20;;;;;;5073320;28;20172;-86
2021/12/02 05:09:13;;;;;;;10.57;1.93;;;1.70;84.70;;;;;;5073841;28;20237;-85
2021/12/02 05:11:38;;;;;;;9.13;1.90;;;1.60;85.00;;;;;;5072715;28;20197;-85
2021/12/02 05:14:06;;;;;;;8.07;2.30;;;1.60;85.30;;;;;;5073797;28;20169;-85
2021/12/02 05:16:31;;;;;;;5.97;2.00;;;1.50;85.70;;;;;;5072577;28;20278;-85
2021/12/02 05:18:57;;;;;;;11.33;2.33;;;1.40;85.70;;;;;;5074182;28;20265;-85
2021/12/02 05:21:23;;;;;;;7.07;1.70;;;1.40;85.60;;;;;;5074768;28;20181;-85
2021/12/02 05:23:53;;;;;;;9.10;2.03;;;1.40;85.60;;;;;;5074115;28;20593;-85
2021/12/02 05:26:19;;;;;;;5.67;2.30;;;1.40;85.80;;;;;;5073904;28;20173;-85
2021/12/02 05:28:45;;;;;;;6.03;2.20;;;1.30;86.00;;;;;;5072473;28;20277;-86
2021/12/02 05:31:10;;;;;;;10.37;2.07;;;1.30;86.10;;;;;;5074190;28;20202;-85
2021/12/02 05:33:36;;;;;;;13.03;1.90;;;1.30;86.20;;;;;;5073703;28;20582;-85
2021/12/02 05:36:02;;;;;;;5.77;2.33;;;1.30;86.40;;;;;;5073613;28;20178;-85
2021/12/02 05:38:27;;;;;;;9.87;1.97;;;1.20;86.40;;;;;;5075736;28;20176;-85
2021/12/02 05:40:53;;;;;;;9.87;2.27;;;1.10;86.80;;;;;;5077051;28;20176;-86
2021/12/02 05:43:19;;;;;;;5.13;1.83;;;1.20;87.00;;;;;;5076980;28;20192;-85
2021/12/02 05:45:45;;;;;;;12.97;1.93;;;1.00;87.10;;;;;;5077230;28;20167;-86
2021/12/02 05:48:11;;;;;;;10.53;2.40;;;1.00;87.40;;;;;;5077931;28;20222;-85
2021/12/02 05:50:37;;;;;;;13.50;2.20;;;1.00;87.50;;;;;;5077026;28;20177;-85
2021/12/02 05:53:02;;;;;;;7.57;2.40;;;1.00;87.50;;;;;;5075554;28;20225;-85
2021/12/02 05:55:28;;;;;;;8.57;2.27;;;1.00;87.50;;;;;;5075250;28;20547;-86
2021/12/02 05:57:54;;;;;;;5.60;1.40;;;1.00;87.60;;;;;;5075030;28;20223;-86
2021/12/02 06:00:20;;;;;;;4.90;1.67;;;1.00;87.80;;;;;;5076731;28;20642;-86
2021/12/02 06:02:45;;;;;;;9.00;1.70;;;1.00;87.80;;;;;;5077051;28;20228;-85
2021/12/02 06:05:17;;;;;;;6.90;1.90;;;1.00;87.80;;;;;;5076549;28;20230;-86
2021/12/02 06:07:44;;;;;;;17.53;2.83;;;1.00;87.80;;;;;;5076407;28;20160;-85
2021/12/02 06:10:09;;;;;;;5.50;2.17;;;1.00;87.70;;;;;;5076341;28;20256;-85
2021/12/02 06:12:35;;;;;;;12.80;2.67;;;1.00;87.70;;;;;;5076177;28;20652;-85
2021/12/02 06:15:00;;;;;;;8.57;1.93;;;1.10;87.90;;;;;;5074646;28;20175;-85
2021/12/02 06:17:26;;;;;;;5.57;1.70;;;1.10;87.90;;;;;;5076055;28;20178;-86
2021/12/02 06:19:52;;;;;;;10.30;1.80;;;1.00;87.90;;;;;;5076161;28;20196;-85
2021/12/02 06:22:17;;;;;;;14.77;2.37;;;1.00;88.00;;;;;;5074519;28;20671;-85
2021/12/02 06:24:44;;;;;;;6.97;1.97;;;1.00;88.10;;;;;;5076155;28;20207;-85
2021/12/02 06:27:11;;;;;;;10.83;2.63;;;0.90;88.00;;;;;;5076204;28;20167;-85
2021/12/02 06:29:37;;;;;;;13.07;2.93;;;0.90;87.80;;;;;;5075383;28;20181;-85
2021/12/02 06:32:04;;;;;;;7.60;1.87;;;0.80;87.60;;;;;;5073954;28;20572;-85
2021/12/02 06:34:30;;;;;;;11.60;2.77;;;0.90;87.50;;;;;;5075218;28;20647;-85
2021/12/02 06:36:56;;;;;;;10.20;1.90;;;0.90;87.30;;;;;;5073766;28;20191;-85
2021/12/02 06:39:22;;;;;;;10.00;1.90;;;0.90;87.20;;;;;;5075201;28;20539;-85
2021/12/02 06:41:47;;;;;;;5.73;2.33;;;0.90;86.90;;;;;;5074880;28;20350;-85
2021/12/02 06:44:13;;;;;;;9.93;2.50;;;1.00;86.80;;;;;;5074741;28;20201;-85
2021/12/02 06:46:39;;;;;;;11.53;2.17;;;0.90;86.80;;;;;;5074750;28;20194;-85
2021/12/02 06:49:05;;;;;;;11.30;2.10;;;0.90;86.80;;;;;;5074167;28;20168;-85
2021/12/02 06:51:30;;;;;;;6.20;2.20;;;0.90;86.90;;;;;;5073706;28;20184;-85
2021/12/02 06:53:57;;;;;;;8.27;2.43;;;0.80;87.00;;;;;;5074855;28;20221;-85
2021/12/02 06:56:22;;;;;;;7.00;1.90;;;0.80;87.10;;;;;;5074983;28;20583;-85
2021/12/02 06:58:48;;;;;;;7.53;2.27;;;0.80;87.30;;;;;;5074646;28;20173;-84
2021/12/02 07:01:14;;;;;;;8.13;2.20;;;0.80;87.40;;;;;;5074965;28;20169;-85
2021/12/02 07:03:40;;;;;;;6.40;2.27;;;0.70;87.50;;;;;;5072976;28;20735;-85
2021/12/02 07:06:05;;;;;;;8.10;2.07;;;0.70;87.50;;;;;;5074520;28;20180;-85
2021/12/02 07:08:31;;;;;;;5.37;1.90;;;0.70;87.70;;;;;;5073175;28;20255;-85
2021/12/02 07:11:03;;;;;;;15.07;2.70;;;0.70;87.80;;;;;;5074342;28;20165;-84
2021/12/02 07:13:29;;;;;;;8.87;2.37;;;0.70;87.90;;;;;;5074361;28;20205;-84
2021/12/02 07:15:56;;;;;;;9.43;2.33;;;0.70;88.00;;;;;;5074290;28;20667;-84
2021/12/02 07:18:22;;;;;;;12.13;2.63;;;0.90;87.60;;;;;;5072945;28;20180;-84
2021/12/02 07:20:50;;;;;;;22.00;2.80;;;0.90;87.20;;;;;;5074202;28;20174;-85
2021/12/02 07:23:17;;;;;;;8.13;2.20;;;1.00;87.10;;;;;;5074099;28;20287;-85
2021/12/02 07:25:43;;;;;;;8.23;2.10;;;0.90;87.10;;;;;;5074093;28;20719;-84
2021/12/02 07:28:10;;;;;;;13.07;3.40;;;0.90;87.00;;;;;;5073250;28;20197;-84
2021/12/02 07:30:36;;;;;;;8.00;2.40;;;0.90;86.90;;;;;;5073976;28;20176;-85
2021/12/02 07:33:03;;;;;;;9.13;2.30;;;1.00;86.40;;;;;;5073856;28;20184;-85
2021/12/02 07:35:29;;;;;;;6.97;2.13;;;1.00;86.20;;;;;;5072577;28;20585;-84
2021/12/02 07:37:57;;;;;;;13.40;2.33;;;1.10;85.20;;;;;;5074102;28;20167;-84
2021/12/02 07:40:25;;;;;;;8.03;2.23;;;1.10;84.80;;;;;;5073912;28;20198;-84
2021/12/02 07:42:52;;;;;;;10.20;2.43;;;1.10;85.00;;;;;;5072401;28;20197;-84
2021/12/02 07:45:23;;;;;;;12.50;2.50;;;1.10;84.70;;;;;;5072712;28;20195;-84
2021/12/02 07:47:49;;;;;;;6.93;2.20;;;1.10;84.20;;;;;;5073664;28;20214;-84
2021/12/02 07:50:17;;;;;;;11.03;2.27;;;1.10;83.90;;;;;;5073874;28;20261;-85
2021/12/02 07:52:54;;;;;;;9.00;2.10;;;1.10;84.00;;;;;;5072524;28;20226;-84
2021/12/02 07:55:23;;;;;;;14.60;3.53;;;1.10;82.70;;;;;;5073840;28;20153;-84
2021/12/02 07:57:49;;;;;;;8.00;2.20;;;1.10;82.50;;;;;;5072136;28;20196;-84
2021/12/02 08:00:22;;;;;;;8.43;1.80;;;1.10;82.10;;;;;;5073412;28;20175;-84
2021/12/02 08:02:50;;;;;;;4.20;2.03;;;1.00;82.50;;;;;;5073287;28;20660;-84
2021/12/02 08:05:16;;;;;;;8.67;2.13;;;1.00;82.50;;;;;;5073546;28;20198;-84
2021/12/02 08:07:44;;;;;;;7.53;2.30;;;1.00;81.60;;;;;;5073446;28;20169;-84
2021/12/02 08:10:12;;;;;;;10.50;2.50;;;1.00;82.00;;;;;;5072079;28;20178;-84
2021/12/02 08:12:39;;;;;;;6.80;2.13;;;1.00;82.00;;;;;;5073122;28;20206;-84
2021/12/02 08:15:07;;;;;;;7.97;2.57;;;1.00;82.30;;;;;;5071977;28;20269;-84
2021/12/02 08:17:33;;;;;;;11.23;2.77;;;1.00;82.10;;;;;;5073268;28;20650;-84
2021/12/02 08:19:59;;;;;;;10.17;2.43;;;1.00;81.50;;;;;;5073541;28;20214;-84
2021/12/02 08:22:25;;;;;;;11.00;2.10;;;1.00;81.80;;;;;;5073273;28;20270;-84
2021/12/02 08:24:50;;;;;;;10.30;2.17;;;1.00;81.60;;;;;;5073201;28;20193;-84
2021/12/02 08:27:16;;;;;;;10.20;2.13;;;1.10;81.20;;;;;;5073189;28;20174;-84
2021/12/02 08:29:42;;;;;;;10.53;2.97;;;1.10;81.40;;;;;;5071789;28;20178;-84
2021/12/02 08:32:08;;;;;;;9.93;2.50;;;1.10;81.50;;;;;;5073071;28;20180;-84
2021/12/02 08:34:34;;;;;;;6.93;2.40;;;1.20;81.10;;;;;;5073183;28;20686;-84
2021/12/02 08:37:00;;;;;;;14.27;2.17;;;1.10;80.90;;;;;;5073074;28;20231;-84
2021/12/02 08:39:30;;;;;;;9.57;3.07;;;1.10;81.20;;;;;;5073050;28;20171;-84
2021/12/02 08:41:56;;;;;;;11.27;3.60;;;1.20;80.90;;;;;;5073009;28;20194;-83
2021/12/02 08:44:25;;;;;;;12.87;2.53;;;1.20;80.80;;;;;;5072954;28;20188;-84
2021/12/02 08:46:52;;;;;;;8.40;2.47;;;1.30;80.00;;;;;;5073037;28;20174;-84
2021/12/02 08:49:22;;;;;;;9.50;2.13;;;1.30;79.90;;;;;;5072890;28;20693;-84
2021/12/02 08:51:51;;;;;;;16.83;3.00;;;1.20;80.50;;;;;;5071787;28;20202;-84
2021/12/02 08:54:17;;;;;;;10.83;2.83;;;1.20;80.60;;;;;;5072854;28;20172;-84
2021/12/02 08:56:43;;;;;;;7.83;2.83;;;1.20;80.40;;;;;;5074563;28;20292;-86
2021/12/02 08:59:09;;;;;;;13.60;2.50;;;1.30;79.90;;;;;;5079189;28;20674;-86
2021/12/02 09:01:35;;;;;;;6.77;2.60;;;1.30;80.20;;;;;;5078536;28;20173;-85
2021/12/02 09:04:04;;;;;;;13.53;2.30;;;1.40;79.70;;;;;;5080427;28;20745;-86
2021/12/02 09:06:30;;;;;;;11.00;2.40;;;1.40;79.70;;;;;;5080829;28;20167;-85
2021/12/02 09:08:58;;;;;;;8.83;2.60;;;1.40;79.80;;;;;;5079004;28;20261;-85
2021/12/02 09:11:25;;;;;;;5.50;2.43;;;1.40;79.60;;;;;;5078869;28;20269;-85
2021/12/02 09:13:56;;;;;;;10.07;2.43;;;1.40;79.30;;;;;;5081031;28;20171;-85
2021/12/02 09:16:22;;;;;;;11.37;2.90;;;1.50;79.40;;;;;;5081976;28;20159;-85
2021/12/02 09:18:47;;;;;;;7.70;2.13;;;1.50;79.30;;;;;;5083571;28;20554;-85
2021/12/02 09:21:13;;;;;;;13.73;2.93;;;1.50;79.20;;;;;;5079717;28;20230;-86
2021/12/02 09:23:39;;;;;;;8.63;2.47;;;1.60;79.00;;;;;;5077181;28;20213;-87
2021/12/02 09:26:04;;;;;;;9.97;2.80;;;1.70;78.50;;;;;;5077194;28;20171;-85
2021/12/02 09:28:30;;;;;;;6.50;2.57;;;1.70;79.10;;;;;;5079222;28;20168;-84
2021/12/02 09:30:56;;;;;;;9.33;2.63;;;1.70;79.50;;;;;;5079351;28;20583;-85
2021/12/02 09:33:21;;;;;;;10.93;2.57;;;1.70;79.70;;;;;;5078145;28;20198;-85
2021/12/02 09:35:47;;;;;;;7.53;2.37;;;1.70;79.70;;;;;;5077380;28;20175;-85
2021/12/02 09:38:13;;;;;;;7.53;2.23;;;1.80;79.20;;;;;;5077741;28;20180;-85
2021/12/02 09:40:41;;;;;;;8.63;2.10;;;1.80;78.90;;;;;;5079573;28;20212;-85
2021/12/02 09:43:10;;;;;;;12.83;2.80;;;1.90;78.60;;;;;;5080822;28;20180;-85
2021/12/02 09:45:36;;;;;;;5.97;2.20;;;2.00;78.50;;;;;;5079119;28;20186;-86
2021/12/02 09:48:02;;;;;;;10.00;2.73;;;2.00;78.60;;;;;;5077762;28;20597;-84
2021/12/02 09:50:34;;;;;;;6.93;2.33;;;2.00;77.90;;;;;;5079710;28;20164;-85
2021/12/02 09:53:07;;;;;;;7.67;2.80;;;2.10;77.80;;;;;;5078162;28;20206;-85
2021/12/02 09:55:43;;;;;;;12.90;2.50;;;2.10;77.40;;;;;;5076458;28;20177;-86
2021/12/02 09:58:16;;;;;;;6.10;2.07;;;2.10;78.00;;;;;;5077763;28;20214;-85
2021/12/02 10:00:49;;;;;;;10.40;2.43;;;2.20;78.40;;;;;;5076797;28;20170;-85
2021/12/02 10:03:51;;;;;;;6.17;2.00;;;2.20;78.10;;;;;;5077754;28;20197;-85
2021/12/02 10:06:19;;;;;;;8.77;2.20;;;2.20;78.20;;;;;;5078728;28;20175;-86
2021/12/02 10:08:59;;;;;;;7.33;2.53;;;2.30;77.50;;;;;;5079296;28;20653;-85
2021/12/02 10:11:39;;;;;;;9.33;2.23;;;2.30;77.10;;;;;;5078378;28;20186;-86
2021/12/02 10:14:22;;;;;;;11.37;2.70;;;2.40;78.10;;;;;;5075423;28;20661;-87
2021/12/02 10:16:49;;;;;;;4.80;2.33;;;2.50;77.70;;;;;;5075736;28;20170;-86
2021/12/02 10:21:48;;;;;;;14.13;2.50;;;2.50;77.00;;;;;;5075080;28;20195;-86
2021/12/02 10:24:17;;;;;;;14.13;3.07;;;2.70;76.10;;;;;;5073431;28;20737;-86
2021/12/02 10:26:45;;;;;;;9.53;2.40;;;2.70;75.20;;;;;;5075368;28;20279;-86
2021/12/02 10:29:21;;;;;;;7.03;2.37;;;2.80;75.80;;;;;;5074099;28;20195;-86
2021/12/02 10:32:03;;;;;;;8.20;2.37;;;2.80;77.00;;;;;;5075361;28;20205;-87
2021/12/02 10:34:29;;;;;;;12.13;2.53;;;2.90;77.10;;;;;;5074063;28;20531;-86
2021/12/02 10:36:58;;;;;;;8.37;2.53;;;3.00;77.00;;;;;;5074276;28;20173;-87
2021/12/02 10:39:25;;;;;;;3.40;1.70;;;3.00;76.60;;;;;;5073856;28;20206;-86
2021/12/02 10:42:05;;;;;;;10.10;2.27;;;3.10;76.50;;;;;;5075030;28;20731;-87
2021/12/02 10:44:34;;;;;;;12.10;2.70;;;3.20;76.20;;;;;;5074299;28;20191;-87
2021/12/02 10:47:03;;;;;;;3.20;1.80;;;3.30;75.80;;;;;;5075166;28;20198;-86
2021/12/02 10:49:35;;;;;;;9.60;2.73;;;3.20;73.80;;;;;;5075075;28;20194;-86
2021/12/02 10:52:04;;;;;;;10.73;2.10;;;3.30;74.60;;;;;;5074833;28;20187;-86
2021/12/02 10:54:35;;;;;;;7.97;1.97;;;3.40;75.50;;;;;;5075002;28;20221;-87
2021/12/02 10:57:22;;;;;;;7.70;2.17;;;3.60;75.70;;;;;;5075115;28;20159;-86
2021/12/02 11:00:05;;;;;;;7.53;2.30;;;3.60;74.30;;;;;;5073958;28;20171;-86
2021/12/02 11:02:36;;;;;;;8.37;2.27;;;3.50;73.40;;;;;;5073493;28;20207;-86
2021/12/02 11:05:18;;;;;;;9.97;2.10;;;3.60;73.80;;;;;;5074740;28;20194;-86
2021/12/02 11:07:51;;;;;;;9.47;1.90;;;3.70;72.60;;;;;;5073434;28;20164;-86
2021/12/02 11:10:16;;;;;;;10.73;2.17;;;3.80;72.40;;;;;;5074989;28;20154;-87
2021/12/02 11:12:48;;;;;;;4.87;1.87;;;4.00;73.80;;;;;;5074519;28;20252;-87
2021/12/02 11:15:16;;;;;;;12.03;2.03;;;4.20;73.00;;;;;;5074624;28;20157;-87
2021/12/02 11:17:46;;;;;;;13.23;2.10;;;4.10;70.90;;;;;;5073356;28;20175;-87
2021/12/02 11:20:36;;;;;;;9.23;2.37;;;4.00;69.90;;;;;;5074539;28;20254;-87
2021/12/02 11:23:17;;;;;;;9.60;2.60;;;3.90;71.60;;;;;;5073908;28;20207;-87
2021/12/02 11:25:59;;;;;;;4.80;2.00;;;3.90;69.50;;;;;;5074341;28;20171;-86
2021/12/02 11:28:27;;;;;;;7.53;2.23;;;3.80;71.60;;;;;;5074337;28;20175;-87
2021/12/02 11:30:54;;;;;;;5.50;1.80;;;3.80;73.20;;;;;;5074294;28;20199;-87
2021/12/02 11:33:20;;;;;;;11.27;2.37;;;3.70;70.70;;;;;;5073740;28;20663;-86
2021/12/02 11:35:48;;;;;;;12.87;1.80;;;3.60;71.60;;;;;;5072760;28;20270;-87
2021/12/02 11:38:19;;;;;;;11.30;1.83;;;3.50;72.00;;;;;;5072911;28;20218;-87
2021/12/02 11:40:47;;;;;;;9.20;2.20;;;3.50;71.70;;;;;;5072792;28;20213;-86
2021/12/02 11:43:17;;;;;;;7.87;2.17;;;3.30;71.60;;;;;;5072699;28;20727;-87
2021/12/02 11:45:46;;;;;;;10.57;2.30;;;3.20;72.00;;;;;;5072740;28;20647;-87
2021/12/02 11:48:15;;;;;;;9.57;2.37;;;3.20;71.50;;;;;;5072661;28;20203;-86
2021/12/02 11:50:42;;;;;;;16.10;2.67;;;3.20;71.10;;;;;;5072546;28;20172;-87
2021/12/02 11:53:08;;;;;;;6.87;1.90;;;3.00;72.30;;;;;;5074073;28;20270;-86
2021/12/02 11:55:40;;;;;;;7.43;1.83;;;3.00;72.90;;;;;;5073793;28;20210;-87
2021/12/02 11:58:07;;;;;;;7.73;2.37;;;3.00;72.90;;;;;;5072614;28;20531;-87
2021/12/02 12:00:34;;;;;;;6.23;1.80;;;3.00;72.50;;;;;;5073651;28;20250;-87
2021/12/02 12:03:03;;;;;;;4.70;2.10;;;3.00;72.80;;;;;;5073559;28;20202;-89
2021/12/02 12:05:35;;;;;;;5.27;1.90;;;2.90;73.10;;;;;;5072170;28;20268;-89
2021/12/02 12:08:01;;;;;;;7.70;2.40;;;2.80;74.20;;;;;;5072286;28;20175;-89
2021/12/02 12:10:38;;;;;;;8.27;1.80;;;2.80;74.30;;;;;;5072227;28;20182;-89
2021/12/02 12:13:14;;;;;;;6.30;2.40;;;2.70;74.90;;;;;;5073196;28;20272;-89
2021/12/02 12:15:52;;;;;;;6.13;1.80;;;2.60;75.30;;;;;;5072141;28;20228;-89
2021/12/02 12:18:34;;;;;;;5.70;1.80;;;2.60;75.80;;;;;;5073442;28;20152;-90
2021/12/02 12:21:02;;;;;;;9.57;2.20;;;2.60;75.90;;;;;;5072199;28;20178;-89
2021/12/02 12:23:43;;;;;;;8.67;2.00;;;2.60;76.00;;;;;;5071895;28;20568;-89
2021/12/02 12:26:21;;;;;;;6.50;2.00;;;2.60;75.90;;;;;;5072039;28;20210;-89
2021/12/02 12:32:02;;;;;;;8.93;2.07;;;2.70;76.60;;;;;;5073697;28;20178;-89
2021/12/02 12:34:43;;;;;;;5.47;2.10;;;2.70;76.60;;;;;;5073201;28;20523;-89
2021/12/02 12:40:05;;;;;;;6.80;2.37;;;2.60;77.60;;;;;;5073850;28;20163;-89
2021/12/02 12:42:31;;;;;;;5.30;2.00;;;2.60;77.50;;;;;;5071757;28;20225;-89
2021/12/02 12:44:59;;;;;;;10.87;2.10;;;2.50;77.10;;;;;;5073034;28;20191;-89
2021/12/02 12:47:40;;;;;;;8.13;2.00;;;2.60;77.10;;;;;;5076850;28;20167;-89
2021/12/02 12:50:25;;;;;;;8.27;2.30;;;2.60;77.30;;;;;;5075973;28;20222;-89
2021/12/02 12:53:02;;;;;;;6.47;2.03;;;2.60;77.50;;;;;;5077339;28;20694;-89
2021/12/02 12:55:30;;;;;;;6.53;2.00;;;2.50;77.50;;;;;;5075830;28;20179;-89
2021/12/02 12:58:07;;;;;;;7.27;2.70;;;2.50;77.70;;;;;;5075798;28;20228;-89
2021/12/02 13:00:41;;;;;;;8.00;1.97;;;2.50;78.10;;;;;;5077303;28;20171;-89
2021/12/02 13:03:15;;;;;;;9.03;2.20;;;2.50;77.90;;;;;;5076140;28;20626;-89
2021/12/02 13:05:53;;;;;;;13.23;2.30;;;2.40;78.40;;;;;;5075701;28;20198;-89
2021/12/02 13:08:26;;;;;;;9.13;2.20;;;2.40;78.20;;;;;;5075740;28;20169;-90
2021/12/02 13:10:56;;;;;;;6.07;2.00;;;2.40;78.50;;;;;;5076870;28;20166;-89
2021/12/02 13:13:27;;;;;;;8.07;1.97;;;2.40;78.50;;;;;;5076866;28;20245;-89
2021/12/02 13:15:53;;;;;;;5.87;2.27;;;2.30;78.90;;;;;;5075741;28;20167;-89
2021/12/02 13:18:31;;;;;;;9.53;2.40;;;2.30;78.90;;;;;;5075536;28;20171;-89
2021/12/02 13:20:57;;;;;;;6.17;2.37;;;2.40;79.20;;;;;;5075481;28;20206;-89
2021/12/02 13:23:27;;;;;;;6.43;2.50;;;2.40;79.40;;;;;;5075230;28;20563;-89
2021/12/02 13:25:54;;;;;;;9.27;2.07;;;2.50;79.70;;;;;;5076610;28;20193;-89
2021/12/02 13:28:33;;;;;;;8.40;2.30;;;2.50;79.70;;;;;;5075408;28;20265;-89